Blue Star Delos — SVBF7 — position and weather

sailwx.info

Track history (hours):
 
Tides and Currents Weather Stations Pressure Air Temp Water Temp Dewpoint Dewpoint Depression Visibility Wind Speed Wind Dir Waves Ship Positions

Blue Star Delos

Last reported at 2017-Oct-18 10:24 UTC. Time now 2017-Oct-18 11:28 UTC.
Position N 36°59' E 025°17'.

Length 145 m; draft 5.9 m.

Type: Ship. MMSI: 241087000.

Date/timePositionNaut miles runAvg speedWind from/ knotsBaromVisibWave heightAir tempDewpointWater temp
2017-Oct-18 10:24N 36°59' E 025°17'820.9
2017-Oct-18 10:01N 37°06' E 025°22'4 7.0
2017-Oct-18 09:31N 37°09' E 025°19'1018.3
2017-Oct-18 08:59N 37°05' E 025°08'2 4.3
2017-Oct-18 08:30N 37°07' E 025°06'1223.6
2017-Oct-18 08:01N 37°14' E 024°54'6023.0
2017-Oct-18 05:24N 37°39' E 023°46'922.7
2017-Oct-18 05:01N 37°46' E 023°39'1020.3
2017-Oct-18 04:30N 37°56' E 023°38'1 1.4
2017-Oct-18 04:00N 37°57' E 023°38'0 0.0
2017-Oct-18 03:30N 37°57' E 023°38'0 0.0
2017-Oct-18 03:00N 37°57' E 023°38'0 0.0
2017-Oct-18 02:30N 37°57' E 023°38'0 0.0
2017-Oct-18 02:00N 37°57' E 023°38'0 0.0
2017-Oct-18 01:30N 37°57' E 023°38'0 0.0
2017-Oct-18 01:00N 37°57' E 023°38'0 0.0
2017-Oct-18 00:30N 37°57' E 023°38'0 0.0
2017-Oct-18 00:00N 37°57' E 023°38'0 0.0
2017-Oct-17 23:30N 37°57' E 023°38'0 0.0
2017-Oct-17 23:00N 37°57' E 023°38'0 0.0
2017-Oct-17 22:30N 37°57' E 023°38'0 0.0
2017-Oct-17 22:00N 37°57' E 023°38'0 0.0
2017-Oct-17 21:30N 37°57' E 023°38'0 0.0
2017-Oct-17 21:00N 37°57' E 023°38'2 3.9
2017-Oct-17 20:30N 37°55' E 023°37'1122.6
2017-Oct-17 20:00N 37°45' E 023°43'1523.5
2017-Oct-17 19:23N 37°37' E 023°59'1223.9
2017-Oct-17 18:54N 37°32' E 024°12'2923.2
2017-Oct-17 17:38N 37°19' E 024°45'324.3
2017-Oct-17 17:31N 37°17' E 024°48'1224.1
2017-Oct-17 17:01N 37°10' E 025°00'8 7.9
2017-Oct-17 16:00N 37°05' E 025°08'917.6
2017-Oct-17 15:31N 37°10' E 025°18'5 9.6
2017-Oct-17 15:01N 37°06' E 025°22'8 1.7
2017-Oct-17 10:21N 36°59' E 025°17'823.0
2017-Oct-17 10:00N 37°06' E 025°21'4 8.8
2017-Oct-17 09:31N 37°10' E 025°18'917.6
2017-Oct-17 09:01N 37°05' E 025°08'3 5.2
2017-Oct-17 08:30N 37°07' E 025°06'1223.3
2017-Oct-17 08:01N 37°14' E 024°54'5922.9
2017-Oct-17 05:26N 37°39' E 023°47'1022.7
2017-Oct-17 05:01N 37°46' E 023°39'1020.4
2017-Oct-17 04:30N 37°56' E 023°38'1 1.5
2017-Oct-17 04:00N 37°57' E 023°38'0 0.0
2017-Oct-17 03:30N 37°57' E 023°38'0 0.0
2017-Oct-17 03:00N 37°57' E 023°38'0 0.0
2017-Oct-17 02:30N 37°57' E 023°38'0 0.0
2017-Oct-17 02:00N 37°57' E 023°38'0 0.0
2017-Oct-17 01:30N 37°57' E 023°38'0 0.0
2017-Oct-17 01:00N 37°57' E 023°38'0 0.0
2017-Oct-17 00:30N 37°57' E 023°38'0 0.0
2017-Oct-17 00:00N 37°57' E 023°38'0 0.0
2017-Oct-16 23:30N 37°57' E 023°38'0 0.0
2017-Oct-16 23:00N 37°57' E 023°38'0 0.0
2017-Oct-16 22:30N 37°57' E 023°38'0 0.0
2017-Oct-16 22:00N 37°57' E 023°38'0 0.0
2017-Oct-16 21:30N 37°57' E 023°38'0 0.0
2017-Oct-16 21:00N 37°57' E 023°38'0 0.1
2017-Oct-16 20:31N 37°57' E 023°38'611.2
2017-Oct-16 20:01N 37°51' E 023°39'1223.5
2017-Oct-16 19:31N 37°41' E 023°47'5223.3
2017-Oct-16 17:18N 37°19' E 024°45'724.2
2017-Oct-16 17:01N 37°15' E 024°52'1224.1
2017-Oct-16 16:31N 37°07' E 025°04'4 5.5
2017-Oct-16 15:48N 37°05' E 025°09'515.2
2017-Oct-16 15:29N 37°09' E 025°12'918.4
2017-Oct-16 15:00N 37°06' E 025°22'4 7.8
2017-Oct-16 14:30N 37°04' E 025°19'5 1.1
2017-Oct-16 10:21N 36°59' E 025°19'721.3
2017-Oct-16 10:00N 37°06' E 025°21'4 8.8
2017-Oct-16 09:31N 37°10' E 025°18'917.2
2017-Oct-16 09:00N 37°05' E 025°08'5 9.7
2017-Oct-16 08:31N 37°08' E 025°04'1122.8
2017-Oct-16 08:01N 37°15' E 024°53'5522.9
2017-Oct-16 05:36N 37°38' E 023°50'223.2
2017-Oct-16 05:30N 37°39' E 023°47'1122.3
2017-Oct-16 05:01N 37°48' E 023°38'917.8
2017-Oct-16 04:30N 37°57' E 023°38'0 0.5
2017-Oct-16 04:00N 37°57' E 023°38'0 0.0
2017-Oct-16 03:30N 37°57' E 023°38'0 0.0
2017-Oct-16 03:00N 37°57' E 023°38'0 0.0
2017-Oct-16 02:30N 37°57' E 023°38'0 0.0
2017-Oct-16 02:00N 37°57' E 023°38'0 0.0
2017-Oct-16 01:30N 37°57' E 023°38'0 0.0
2017-Oct-16 01:00N 37°57' E 023°38'0 0.0
2017-Oct-16 00:30N 37°57' E 023°38'0 0.0
2017-Oct-16 00:00N 37°57' E 023°38'0 0.0
2017-Oct-15 23:30N 37°57' E 023°38'0 0.0
2017-Oct-15 23:00N 37°57' E 023°38'0 0.0
2017-Oct-15 22:30N 37°57' E 023°38'0 0.0
2017-Oct-15 22:00N 37°57' E 023°38'0 0.0
2017-Oct-15 21:30N 37°57' E 023°38'0 0.0
2017-Oct-15 21:00N 37°57' E 023°38'0 0.2
2017-Oct-15 20:30N 37°57' E 023°38'713.1
2017-Oct-15 20:01N 37°50' E 023°40'1223.4
2017-Oct-15 19:31N 37°40' E 023°48'2123.6
2017-Oct-15 18:38N 37°32' E 024°12'2922.7
2017-Oct-15 17:21N 37°20' E 024°45'824.0
2017-Oct-15 17:01N 37°15' E 024°53'1224.0
2017-Oct-15 16:31N 37°07' E 025°05'4 6.3
2017-Oct-15 15:56N 37°05' E 025°09'716.8
2017-Oct-15 15:31N 37°10' E 025°15'713.3
2017-Oct-15 15:00N 37°06' E 025°22'8 1.8
2017-Oct-15 10:20N 36°59' E 025°17'823.7
2017-Oct-15 10:01N 37°06' E 025°21'4 8.2
2017-Oct-15 09:31N 37°10' E 025°18'918.0
2017-Oct-15 09:00N 37°05' E 025°08'2 3.9
2017-Oct-15 08:30N 37°06' E 025°06'1223.6
2017-Oct-15 08:01N 37°14' E 024°55'6023.2
2017-Oct-15 05:24N 37°39' E 023°46'923.1
2017-Oct-15 05:01N 37°47' E 023°39'1019.5
2017-Oct-15 04:30N 37°56' E 023°38'1 1.2
2017-Oct-15 04:00N 37°57' E 023°38'0 0.0
2017-Oct-15 03:31N 37°57' E 023°38'0 0.0
2017-Oct-15 03:01N 37°57' E 023°38'0 0.0
2017-Oct-15 02:31N 37°57' E 023°38'0 0.0
2017-Oct-15 02:00N 37°57' E 023°38'0 0.0
2017-Oct-15 01:30N 37°57' E 023°38'0 0.0
2017-Oct-15 01:00N 37°57' E 023°38'0 0.0
2017-Oct-15 00:30N 37°57' E 023°38'0 0.0
2017-Oct-15 00:00N 37°57' E 023°38'0 0.0
2017-Oct-14 23:30N 37°57' E 023°38'0 0.0
2017-Oct-14 23:00N 37°57' E 023°38'0 0.0
2017-Oct-14 22:31N 37°57' E 023°38'0 0.0
2017-Oct-14 22:00N 37°57' E 023°38'0 0.0
2017-Oct-14 21:30N 37°57' E 023°38'0 0.0
2017-Oct-14 21:01N 37°57' E 023°38'0 0.0
2017-Oct-14 20:30N 37°57' E 023°38'5 9.2
2017-Oct-14 20:01N 37°52' E 023°39'1224.0
2017-Oct-14 19:31N 37°42' E 023°46'2223.8
2017-Oct-14 18:34N 37°32' E 024°12'3022.9
2017-Oct-14 17:17N 37°19' E 024°45'724.6
2017-Oct-14 17:00N 37°15' E 024°52'1224.3
2017-Oct-14 16:30N 37°08' E 025°04'4 7.4
2017-Oct-14 15:55N 37°05' E 025°09'716.9
2017-Oct-14 15:31N 37°10' E 025°15'713.4
2017-Oct-14 15:00N 37°06' E 025°22'5 9.9
2017-Oct-14 14:31N 37°03' E 025°18'3 0.8
2017-Oct-14 10:22N 36°59' E 025°19'720.6
2017-Oct-14 10:01N 37°06' E 025°21'4 7.4
2017-Oct-14 09:30N 37°09' E 025°18'1018.5
2017-Oct-14 09:00N 37°05' E 025°08'1 2.7
2017-Oct-14 08:31N 37°06' E 025°07'1223.4
2017-Oct-14 08:00N 37°13' E 024°55'5923.3
2017-Oct-14 05:28N 37°39' E 023°48'1022.2
2017-Oct-14 05:01N 37°46' E 023°39'1020.2
2017-Oct-14 04:30N 37°56' E 023°38'1 1.3
2017-Oct-14 04:00N 37°57' E 023°38'0 0.0
2017-Oct-14 03:30N 37°57' E 023°38'0 0.0
2017-Oct-14 03:00N 37°57' E 023°38'0 0.0
2017-Oct-14 02:30N 37°57' E 023°38'0 0.0
2017-Oct-14 02:00N 37°57' E 023°38'0 0.0
2017-Oct-14 01:30N 37°57' E 023°38'0 0.0
2017-Oct-14 01:00N 37°57' E 023°38'0 0.0
2017-Oct-14 00:30N 37°57' E 023°38'0 0.0
2017-Oct-14 00:00N 37°57' E 023°38'0 0.0
2017-Oct-13 23:30N 37°57' E 023°38'0 0.0
2017-Oct-13 23:00N 37°57' E 023°38'0 0.0
2017-Oct-13 22:30N 37°57' E 023°38'0 0.0
2017-Oct-13 22:00N 37°57' E 023°38'0 0.0
2017-Oct-13 21:30N 37°57' E 023°38'0 0.0
2017-Oct-13 21:00N 37°57' E 023°38'0 0.0
2017-Oct-13 20:30N 37°57' E 023°38'510.9
2017-Oct-13 20:01N 37°51' E 023°39'1224.0
2017-Oct-13 19:31N 37°41' E 023°47'2223.9
2017-Oct-13 18:35N 37°32' E 024°13'2823.2
2017-Oct-13 17:22N 37°20' E 024°45'924.9
2017-Oct-13 17:00N 37°15' E 024°54'1224.4
2017-Oct-13 16:31N 37°07' E 025°06'2 3.6
2017-Oct-13 16:00N 37°06' E 025°07'1020.5
2017-Oct-13 15:31N 37°09' E 025°20'2 4.2
2017-Oct-13 15:01N 37°06' E 025°20'8 1.7
2017-Oct-13 10:22N 36°59' E 025°17'821.6
2017-Oct-13 10:00N 37°06' E 025°22'4 7.5
2017-Oct-13 09:31N 37°09' E 025°19'916.9
2017-Oct-13 08:58N 37°05' E 025°08'3 6.1
2017-Oct-13 08:31N 37°07' E 025°05'1223.7
2017-Oct-13 08:00N 37°14' E 024°54'5623.4
2017-Oct-13 05:36N 37°38' E 023°50'224.1
2017-Oct-13 05:30N 37°39' E 023°47'1122.9
2017-Oct-13 05:01N 37°48' E 023°38'917.3
2017-Oct-13 04:30N 37°57' E 023°38'0 0.5
2017-Oct-13 04:01N 37°57' E 023°38'0 0.0
2017-Oct-13 03:30N 37°57' E 023°38'0 0.0
2017-Oct-13 03:00N 37°57' E 023°38'0 0.0
2017-Oct-13 02:30N 37°57' E 023°38'0 0.0
2017-Oct-13 02:01N 37°57' E 023°38'0 0.0
2017-Oct-13 01:30N 37°57' E 023°38'0 0.0
2017-Oct-13 01:01N 37°57' E 023°38'0 0.0
2017-Oct-13 00:30N 37°57' E 023°38'0 0.0
2017-Oct-13 00:00N 37°57' E 023°38'0 0.0
2017-Oct-12 23:30N 37°57' E 023°38'0 0.0
2017-Oct-12 23:01N 37°57' E 023°38'0 0.0
2017-Oct-12 22:30N 37°57' E 023°38'0 0.0
2017-Oct-12 22:01N 37°57' E 023°38'0 0.0
2017-Oct-12 21:30N 37°57' E 023°38'0 0.0
2017-Oct-12 21:00N 37°57' E 023°38'0 0.1
2017-Oct-12 20:30N 37°57' E 023°38'510.4
2017-Oct-12 20:01N 37°52' E 023°39'1224.0
2017-Oct-12 19:31N 37°41' E 023°46'1423.8
2017-Oct-12 18:55N 37°35' E 024°02'3723.3
2017-Oct-12 17:19N 37°20' E 024°45'724.0
2017-Oct-12 17:01N 37°15' E 024°52'1223.8
2017-Oct-12 16:31N 37°08' E 025°04'4 8.0
2017-Oct-12 15:58N 37°05' E 025°09'816.9
2017-Oct-12 15:31N 37°10' E 025°16'612.0
2017-Oct-12 15:00N 37°06' E 025°22'8 1.7
2017-Oct-12 10:20N 36°59' E 025°17'823.0
2017-Oct-12 10:00N 37°06' E 025°21'4 7.2
2017-Oct-12 09:30N 37°09' E 025°18'917.4
2017-Oct-12 08:59N 37°05' E 025°08'1 3.1
2017-Oct-12 08:31N 37°06' E 025°07'1224.0
2017-Oct-12 08:01N 37°13' E 024°55'6223.5
2017-Oct-12 05:21N 37°40' E 023°44'823.8
2017-Oct-12 05:01N 37°47' E 023°39'918.4
2017-Oct-12 04:30N 37°56' E 023°38'1 0.1
2017-Oct-11 20:24N 37°57' E 023°38'513.3
2017-Oct-11 20:01N 37°52' E 023°39'1423.4
2017-Oct-11 19:25N 37°40' E 023°49'1323.8
2017-Oct-11 18:53N 37°35' E 024°03'3723.2
2017-Oct-11 17:17N 37°19' E 024°45'723.9
2017-Oct-11 17:01N 37°15' E 024°52'72 4.2
2017-Oct-11 00:00N 37°57' E 023°38'0 0.0
2017-Oct-10 23:30N 37°57' E 023°38'0 0.0
2017-Oct-10 23:00N 37°57' E 023°38'0 0.0
2017-Oct-10 22:30N 37°57' E 023°38'0 0.0
2017-Oct-10 22:00N 37°57' E 023°38'0 0.0
2017-Oct-10 21:30N 37°57' E 023°38'0 0.0
2017-Oct-10 21:00N 37°57' E 023°38'0 0.0
2017-Oct-10 20:30N 37°57' E 023°38'510.0
2017-Oct-10 20:01N 37°52' E 023°39'1224.2
2017-Oct-10 19:30N 37°41' E 023°46'5223.4
2017-Oct-10 17:17N 37°19' E 024°45'724.3
2017-Oct-10 17:00N 37°15' E 024°52'1224.1
2017-Oct-10 16:30N 37°08' E 025°04'4 7.9
2017-Oct-10 15:58N 37°05' E 025°09'816.9
2017-Oct-10 15:31N 37°10' E 025°17'611.5
2017-Oct-10 15:00N 37°06' E 025°22'8 1.7
2017-Oct-10 10:19N 36°59' E 025°17'723.7
2017-Oct-10 10:01N 37°06' E 025°20'4 7.2
2017-Oct-10 09:31N 37°09' E 025°18'917.5
2017-Oct-10 09:00N 37°05' E 025°08'510.6
2017-Oct-10 08:31N 37°08' E 025°03'1223.3
2017-Oct-10 08:01N 37°15' E 024°52'5623.6
2017-Oct-10 05:39N 37°38' E 023°48'424.5
2017-Oct-10 05:31N 37°40' E 023°44'1523.5
2017-Oct-10 04:51N 37°54' E 023°37'3 8.0
2017-Oct-10 04:30N 37°57' E 023°38'0 0.0
2017-Oct-10 04:01N 37°57' E 023°38'0 0.0
2017-Oct-10 03:31N 37°57' E 023°38'0 0.0
2017-Oct-10 03:01N 37°57' E 023°38'0 0.0
2017-Oct-10 02:31N 37°57' E 023°38'0 0.0
2017-Oct-10 02:01N 37°57' E 023°38'0 0.0
2017-Oct-10 01:31N 37°57' E 023°38'0 0.0
2017-Oct-10 01:01N 37°57' E 023°38'0 0.0
2017-Oct-10 00:31N 37°57' E 023°38'0 0.0
2017-Oct-10 00:01N 37°57' E 023°38'0 0.0
2017-Oct-09 23:31N 37°57' E 023°38'0 0.0
2017-Oct-09 23:01N 37°57' E 023°38'0 0.0
2017-Oct-09 22:31N 37°57' E 023°38'0 0.0
2017-Oct-09 22:01N 37°57' E 023°38'0 0.0
2017-Oct-09 21:31N 37°57' E 023°38'0 0.0
2017-Oct-09 21:01N 37°57' E 023°38'0 0.2
2017-Oct-09 20:31N 37°57' E 023°38'611.6
2017-Oct-09 20:01N 37°51' E 023°39'1223.8
2017-Oct-09 19:30N 37°41' E 023°47'5123.6
2017-Oct-09 17:20N 37°19' E 024°45'824.3
2017-Oct-09 17:01N 37°14' E 024°54'1224.6
2017-Oct-09 16:30N 37°07' E 025°06'2 4.3
2017-Oct-09 16:00N 37°05' E 025°08'1019.5
2017-Oct-09 15:31N 37°09' E 025°19'4 7.5
2017-Oct-09 15:01N 37°06' E 025°22'8 1.7
2017-Oct-09 10:18N 36°59' E 025°17'724.1
2017-Oct-09 10:01N 37°06' E 025°20'4 7.4
2017-Oct-09 09:31N 37°09' E 025°19'918.2
2017-Oct-09 08:59N 37°05' E 025°08'1 1.9
2017-Oct-09 08:30N 37°06' E 025°07'1223.9
2017-Oct-09 08:01N 37°13' E 024°55'6023.9
2017-Oct-09 05:30N 37°38' E 023°46'1123.2
2017-Oct-09 05:01N 37°47' E 023°39'918.2
2017-Oct-09 04:30N 37°56' E 023°38'1 1.2
2017-Oct-09 04:00N 37°57' E 023°38'0 0.0
2017-Oct-09 03:30N 37°57' E 023°38'0 0.0
2017-Oct-09 03:00N 37°57' E 023°38'0 0.0
2017-Oct-09 02:30N 37°57' E 023°38'0 0.0
2017-Oct-09 02:00N 37°57' E 023°38'0 0.0
2017-Oct-09 01:30N 37°57' E 023°38'0 0.0
2017-Oct-09 01:00N 37°57' E 023°38'0 0.0
2017-Oct-09 00:30N 37°57' E 023°38'0 0.0
2017-Oct-09 00:00N 37°57' E 023°38'0 0.0
2017-Oct-08 23:30N 37°57' E 023°38'0 0.0
2017-Oct-08 23:00N 37°57' E 023°38'0 0.0
2017-Oct-08 22:30N 37°57' E 023°38'0 0.0
2017-Oct-08 22:00N 37°57' E 023°38'0 0.0
2017-Oct-08 21:30N 37°57' E 023°38'0 0.0
2017-Oct-08 21:00N 37°57' E 023°38'2 4.2
2017-Oct-08 20:30N 37°55' E 023°37'1122.4
2017-Oct-08 20:01N 37°45' E 023°43'5523.1
2017-Oct-08 17:38N 37°20' E 024°45'323.9
2017-Oct-08 17:31N 37°18' E 024°48'1223.8
2017-Oct-08 17:01N 37°11' E 024°60'910.9
2017-Oct-08 16:11N 37°05' E 025°09'211.7
2017-Oct-08 16:01N 37°07' E 025°09'1019.9
2017-Oct-08 15:31N 37°07' E 025°21'2 3.0
2017-Oct-08 15:01N 37°06' E 025°20'  
Track history (hours):
 
Tides and Currents Weather Stations Pressure Air Temp Water Temp Dewpoint Dewpoint Depression Visibility Wind Speed Wind Dir Waves Ship Positions

Blue Star Delos

Last reported at 2017-Oct-18 10:24 UTC. Time now 2017-Oct-18 11:28 UTC.
Position N 36°59' E 025°17'.

Length 145 m; draft 5.9 m.

Type: Ship. MMSI: 241087000.

Date/timePositionNaut miles runAvg speedWind from/ knotsBaromVisibWave heightAir tempDewpointWater temp
2017-Oct-18 10:24N 36°59' E 025°17'820.9
2017-Oct-18 10:01N 37°06' E 025°22'4 7.0
2017-Oct-18 09:31N 37°09' E 025°19'1018.3
2017-Oct-18 08:59N 37°05' E 025°08'2 4.3
2017-Oct-18 08:30N 37°07' E 025°06'1223.6
2017-Oct-18 08:01N 37°14' E 024°54'6023.0
2017-Oct-18 05:24N 37°39' E 023°46'922.7
2017-Oct-18 05:01N 37°46' E 023°39'1020.3
2017-Oct-18 04:30N 37°56' E 023°38'1 1.4
2017-Oct-18 04:00N 37°57' E 023°38'0 0.0
2017-Oct-18 03:30N 37°57' E 023°38'0 0.0
2017-Oct-18 03:00N 37°57' E 023°38'0 0.0
2017-Oct-18 02:30N 37°57' E 023°38'0 0.0
2017-Oct-18 02:00N 37°57' E 023°38'0 0.0
2017-Oct-18 01:30N 37°57' E 023°38'0 0.0
2017-Oct-18 01:00N 37°57' E 023°38'0 0.0
2017-Oct-18 00:30N 37°57' E 023°38'0 0.0
2017-Oct-18 00:00N 37°57' E 023°38'0 0.0
2017-Oct-17 23:30N 37°57' E 023°38'0 0.0
2017-Oct-17 23:00N 37°57' E 023°38'0 0.0
2017-Oct-17 22:30N 37°57' E 023°38'0 0.0
2017-Oct-17 22:00N 37°57' E 023°38'0 0.0
2017-Oct-17 21:30N 37°57' E 023°38'0 0.0
2017-Oct-17 21:00N 37°57' E 023°38'2 3.9
2017-Oct-17 20:30N 37°55' E 023°37'1122.6
2017-Oct-17 20:00N 37°45' E 023°43'1523.5
2017-Oct-17 19:23N 37°37' E 023°59'1223.9
2017-Oct-17 18:54N 37°32' E 024°12'2923.2
2017-Oct-17 17:38N 37°19' E 024°45'324.3
2017-Oct-17 17:31N 37°17' E 024°48'1224.1
2017-Oct-17 17:01N 37°10' E 025°00'8 7.9
2017-Oct-17 16:00N 37°05' E 025°08'917.6
2017-Oct-17 15:31N 37°10' E 025°18'5 9.6
2017-Oct-17 15:01N 37°06' E 025°22'8 1.7
2017-Oct-17 10:21N 36°59' E 025°17'823.0
2017-Oct-17 10:00N 37°06' E 025°21'4 8.8
2017-Oct-17 09:31N 37°10' E 025°18'917.6
2017-Oct-17 09:01N 37°05' E 025°08'3 5.2
2017-Oct-17 08:30N 37°07' E 025°06'1223.3
2017-Oct-17 08:01N 37°14' E 024°54'5922.9
2017-Oct-17 05:26N 37°39' E 023°47'1022.7
2017-Oct-17 05:01N 37°46' E 023°39'1020.4
2017-Oct-17 04:30N 37°56' E 023°38'1 1.5
2017-Oct-17 04:00N 37°57' E 023°38'0 0.0
2017-Oct-17 03:30N 37°57' E 023°38'0 0.0
2017-Oct-17 03:00N 37°57' E 023°38'0 0.0
2017-Oct-17 02:30N 37°57' E 023°38'0 0.0
2017-Oct-17 02:00N 37°57' E 023°38'0 0.0
2017-Oct-17 01:30N 37°57' E 023°38'0 0.0
2017-Oct-17 01:00N 37°57' E 023°38'0 0.0
2017-Oct-17 00:30N 37°57' E 023°38'0 0.0
2017-Oct-17 00:00N 37°57' E 023°38'0 0.0
2017-Oct-16 23:30N 37°57' E 023°38'0 0.0
2017-Oct-16 23:00N 37°57' E 023°38'0 0.0
2017-Oct-16 22:30N 37°57' E 023°38'0 0.0
2017-Oct-16 22:00N 37°57' E 023°38'0 0.0
2017-Oct-16 21:30N 37°57' E 023°38'0 0.0
2017-Oct-16 21:00N 37°57' E 023°38'0 0.1
2017-Oct-16 20:31N 37°57' E 023°38'611.2
2017-Oct-16 20:01N 37°51' E 023°39'1223.5
2017-Oct-16 19:31N 37°41' E 023°47'5223.3
2017-Oct-16 17:18N 37°19' E 024°45'724.2
2017-Oct-16 17:01N 37°15' E 024°52'1224.1
2017-Oct-16 16:31N 37°07' E 025°04'4 5.5
2017-Oct-16 15:48N 37°05' E 025°09'515.2
2017-Oct-16 15:29N 37°09' E 025°12'918.4
2017-Oct-16 15:00N 37°06' E 025°22'4 7.8
2017-Oct-16 14:30N 37°04' E 025°19'5 1.1
2017-Oct-16 10:21N 36°59' E 025°19'721.3
2017-Oct-16 10:00N 37°06' E 025°21'4 8.8
2017-Oct-16 09:31N 37°10' E 025°18'917.2
2017-Oct-16 09:00N 37°05' E 025°08'5 9.7
2017-Oct-16 08:31N 37°08' E 025°04'1122.8
2017-Oct-16 08:01N 37°15' E 024°53'5522.9
2017-Oct-16 05:36N 37°38' E 023°50'223.2
2017-Oct-16 05:30N 37°39' E 023°47'1122.3
2017-Oct-16 05:01N 37°48' E 023°38'917.8
2017-Oct-16 04:30N 37°57' E 023°38'0 0.5
2017-Oct-16 04:00N 37°57' E 023°38'0 0.0
2017-Oct-16 03:30N 37°57' E 023°38'0 0.0
2017-Oct-16 03:00N 37°57' E 023°38'0 0.0
2017-Oct-16 02:30N 37°57' E 023°38'0 0.0
2017-Oct-16 02:00N 37°57' E 023°38'0 0.0
2017-Oct-16 01:30N 37°57' E 023°38'0 0.0
2017-Oct-16 01:00N 37°57' E 023°38'0 0.0
2017-Oct-16 00:30N 37°57' E 023°38'0 0.0
2017-Oct-16 00:00N 37°57' E 023°38'0 0.0
2017-Oct-15 23:30N 37°57' E 023°38'0 0.0
2017-Oct-15 23:00N 37°57' E 023°38'0 0.0
2017-Oct-15 22:30N 37°57' E 023°38'0 0.0
2017-Oct-15 22:00N 37°57' E 023°38'0 0.0
2017-Oct-15 21:30N 37°57' E 023°38'0 0.0
2017-Oct-15 21:00N 37°57' E 023°38'0 0.2
2017-Oct-15 20:30N 37°57' E 023°38'713.1
2017-Oct-15 20:01N 37°50' E 023°40'1223.4
2017-Oct-15 19:31N 37°40' E 023°48'2123.6
2017-Oct-15 18:38N 37°32' E 024°12'2922.7
2017-Oct-15 17:21N 37°20' E 024°45'824.0
2017-Oct-15 17:01N 37°15' E 024°53'1224.0
2017-Oct-15 16:31N 37°07' E 025°05'4 6.3
2017-Oct-15 15:56N 37°05' E 025°09'716.8
2017-Oct-15 15:31N 37°10' E 025°15'713.3
2017-Oct-15 15:00N 37°06' E 025°22'8 1.8
2017-Oct-15 10:20N 36°59' E 025°17'823.7
2017-Oct-15 10:01N 37°06' E 025°21'4 8.2
2017-Oct-15 09:31N 37°10' E 025°18'918.0
2017-Oct-15 09:00N 37°05' E 025°08'2 3.9
2017-Oct-15 08:30N 37°06' E 025°06'1223.6
2017-Oct-15 08:01N 37°14' E 024°55'6023.2
2017-Oct-15 05:24N 37°39' E 023°46'923.1
2017-Oct-15 05:01N 37°47' E 023°39'1019.5
2017-Oct-15 04:30N 37°56' E 023°38'1 1.2
2017-Oct-15 04:00N 37°57' E 023°38'0 0.0
2017-Oct-15 03:31N 37°57' E 023°38'0 0.0
2017-Oct-15 03:01N 37°57' E 023°38'0 0.0
2017-Oct-15 02:31N 37°57' E 023°38'0 0.0
2017-Oct-15 02:00N 37°57' E 023°38'0 0.0
2017-Oct-15 01:30N 37°57' E 023°38'0 0.0
2017-Oct-15 01:00N 37°57' E 023°38'0 0.0
2017-Oct-15 00:30N 37°57' E 023°38'0 0.0
2017-Oct-15 00:00N 37°57' E 023°38'0 0.0
2017-Oct-14 23:30N 37°57' E 023°38'0 0.0
2017-Oct-14 23:00N 37°57' E 023°38'0 0.0
2017-Oct-14 22:31N 37°57' E 023°38'0 0.0
2017-Oct-14 22:00N 37°57' E 023°38'0 0.0
2017-Oct-14 21:30N 37°57' E 023°38'0 0.0
2017-Oct-14 21:01N 37°57' E 023°38'0 0.0
2017-Oct-14 20:30N 37°57' E 023°38'5 9.2
2017-Oct-14 20:01N 37°52' E 023°39'1224.0
2017-Oct-14 19:31N 37°42' E 023°46'2223.8
2017-Oct-14 18:34N 37°32' E 024°12'3022.9
2017-Oct-14 17:17N 37°19' E 024°45'724.6
2017-Oct-14 17:00N 37°15' E 024°52'1224.3
2017-Oct-14 16:30N 37°08' E 025°04'4 7.4
2017-Oct-14 15:55N 37°05' E 025°09'716.9
2017-Oct-14 15:31N 37°10' E 025°15'713.4
2017-Oct-14 15:00N 37°06' E 025°22'5 9.9
2017-Oct-14 14:31N 37°03' E 025°18'3 0.8
2017-Oct-14 10:22N 36°59' E 025°19'720.6
2017-Oct-14 10:01N 37°06' E 025°21'4 7.4
2017-Oct-14 09:30N 37°09' E 025°18'1018.5
2017-Oct-14 09:00N 37°05' E 025°08'1 2.7
2017-Oct-14 08:31N 37°06' E 025°07'1223.4
2017-Oct-14 08:00N 37°13' E 024°55'5923.3
2017-Oct-14 05:28N 37°39' E 023°48'1022.2
2017-Oct-14 05:01N 37°46' E 023°39'1020.2
2017-Oct-14 04:30N 37°56' E 023°38'1 1.3
2017-Oct-14 04:00N 37°57' E 023°38'0 0.0
2017-Oct-14 03:30N 37°57' E 023°38'0 0.0
2017-Oct-14 03:00N 37°57' E 023°38'0 0.0
2017-Oct-14 02:30N 37°57' E 023°38'0 0.0
2017-Oct-14 02:00N 37°57' E 023°38'0 0.0
2017-Oct-14 01:30N 37°57' E 023°38'0 0.0
2017-Oct-14 01:00N 37°57' E 023°38'0 0.0
2017-Oct-14 00:30N 37°57' E 023°38'0 0.0
2017-Oct-14 00:00N 37°57' E 023°38'0 0.0
2017-Oct-13 23:30N 37°57' E 023°38'0 0.0
2017-Oct-13 23:00N 37°57' E 023°38'0 0.0
2017-Oct-13 22:30N 37°57' E 023°38'0 0.0
2017-Oct-13 22:00N 37°57' E 023°38'0 0.0
2017-Oct-13 21:30N 37°57' E 023°38'0 0.0
2017-Oct-13 21:00N 37°57' E 023°38'0 0.0
2017-Oct-13 20:30N 37°57' E 023°38'510.9
2017-Oct-13 20:01N 37°51' E 023°39'1224.0
2017-Oct-13 19:31N 37°41' E 023°47'2223.9
2017-Oct-13 18:35N 37°32' E 024°13'2823.2
2017-Oct-13 17:22N 37°20' E 024°45'924.9
2017-Oct-13 17:00N 37°15' E 024°54'1224.4
2017-Oct-13 16:31N 37°07' E 025°06'2 3.6
2017-Oct-13 16:00N 37°06' E 025°07'1020.5
2017-Oct-13 15:31N 37°09' E 025°20'2 4.2
2017-Oct-13 15:01N 37°06' E 025°20'8 1.7
2017-Oct-13 10:22N 36°59' E 025°17'821.6
2017-Oct-13 10:00N 37°06' E 025°22'4 7.5
2017-Oct-13 09:31N 37°09' E 025°19'916.9
2017-Oct-13 08:58N 37°05' E 025°08'3 6.1
2017-Oct-13 08:31N 37°07' E 025°05'1223.7
2017-Oct-13 08:00N 37°14' E 024°54'5623.4
2017-Oct-13 05:36N 37°38' E 023°50'224.1
2017-Oct-13 05:30N 37°39' E 023°47'1122.9
2017-Oct-13 05:01N 37°48' E 023°38'917.3
2017-Oct-13 04:30N 37°57' E 023°38'0 0.5
2017-Oct-13 04:01N 37°57' E 023°38'0 0.0
2017-Oct-13 03:30N 37°57' E 023°38'0 0.0
2017-Oct-13 03:00N 37°57' E 023°38'0 0.0
2017-Oct-13 02:30N 37°57' E 023°38'0 0.0
2017-Oct-13 02:01N 37°57' E 023°38'0 0.0
2017-Oct-13 01:30N 37°57' E 023°38'0 0.0
2017-Oct-13 01:01N 37°57' E 023°38'0 0.0
2017-Oct-13 00:30N 37°57' E 023°38'0 0.0
2017-Oct-13 00:00N 37°57' E 023°38'0 0.0
2017-Oct-12 23:30N 37°57' E 023°38'0 0.0
2017-Oct-12 23:01N 37°57' E 023°38'0 0.0
2017-Oct-12 22:30N 37°57' E 023°38'0 0.0
2017-Oct-12 22:01N 37°57' E 023°38'0 0.0
2017-Oct-12 21:30N 37°57' E 023°38'0 0.0
2017-Oct-12 21:00N 37°57' E 023°38'0 0.1
2017-Oct-12 20:30N 37°57' E 023°38'510.4
2017-Oct-12 20:01N 37°52' E 023°39'1224.0
2017-Oct-12 19:31N 37°41' E 023°46'1423.8
2017-Oct-12 18:55N 37°35' E 024°02'3723.3
2017-Oct-12 17:19N 37°20' E 024°45'724.0
2017-Oct-12 17:01N 37°15' E 024°52'1223.8
2017-Oct-12 16:31N 37°08' E 025°04'4 8.0
2017-Oct-12 15:58N 37°05' E 025°09'816.9
2017-Oct-12 15:31N 37°10' E 025°16'612.0
2017-Oct-12 15:00N 37°06' E 025°22'8 1.7
2017-Oct-12 10:20N 36°59' E 025°17'823.0
2017-Oct-12 10:00N 37°06' E 025°21'4 7.2
2017-Oct-12 09:30N 37°09' E 025°18'917.4
2017-Oct-12 08:59N 37°05' E 025°08'1 3.1
2017-Oct-12 08:31N 37°06' E 025°07'1224.0
2017-Oct-12 08:01N 37°13' E 024°55'6223.5
2017-Oct-12 05:21N 37°40' E 023°44'823.8
2017-Oct-12 05:01N 37°47' E 023°39'918.4
2017-Oct-12 04:30N 37°56' E 023°38'1 0.1
2017-Oct-11 20:24N 37°57' E 023°38'513.3
2017-Oct-11 20:01N 37°52' E 023°39'1423.4
2017-Oct-11 19:25N 37°40' E 023°49'1323.8
2017-Oct-11 18:53N 37°35' E 024°03'3723.2
2017-Oct-11 17:17N 37°19' E 024°45'723.9
2017-Oct-11 17:01N 37°15' E 024°52'72 4.2
2017-Oct-11 00:00N 37°57' E 023°38'0 0.0
2017-Oct-10 23:30N 37°57' E 023°38'0 0.0
2017-Oct-10 23:00N 37°57' E 023°38'0 0.0
2017-Oct-10 22:30N 37°57' E 023°38'0 0.0
2017-Oct-10 22:00N 37°57' E 023°38'0 0.0
2017-Oct-10 21:30N 37°57' E 023°38'0 0.0
2017-Oct-10 21:00N 37°57' E 023°38'0 0.0
2017-Oct-10 20:30N 37°57' E 023°38'510.0
2017-Oct-10 20:01N 37°52' E 023°39'1224.2
2017-Oct-10 19:30N 37°41' E 023°46'5223.4
2017-Oct-10 17:17N 37°19' E 024°45'724.3
2017-Oct-10 17:00N 37°15' E 024°52'1224.1
2017-Oct-10 16:30N 37°08' E 025°04'4 7.9
2017-Oct-10 15:58N 37°05' E 025°09'816.9
2017-Oct-10 15:31N 37°10' E 025°17'611.5
2017-Oct-10 15:00N 37°06' E 025°22'8 1.7
2017-Oct-10 10:19N 36°59' E 025°17'723.7
2017-Oct-10 10:01N 37°06' E 025°20'4 7.2
2017-Oct-10 09:31N 37°09' E 025°18'917.5
2017-Oct-10 09:00N 37°05' E 025°08'510.6
2017-Oct-10 08:31N 37°08' E 025°03'1223.3
2017-Oct-10 08:01N 37°15' E 024°52'5623.6
2017-Oct-10 05:39N 37°38' E 023°48'424.5
2017-Oct-10 05:31N 37°40' E 023°44'1523.5
2017-Oct-10 04:51N 37°54' E 023°37'3 8.0
2017-Oct-10 04:30N 37°57' E 023°38'0 0.0
2017-Oct-10 04:01N 37°57' E 023°38'0 0.0
2017-Oct-10 03:31N 37°57' E 023°38'0 0.0
2017-Oct-10 03:01N 37°57' E 023°38'0 0.0
2017-Oct-10 02:31N 37°57' E 023°38'0 0.0
2017-Oct-10 02:01N 37°57' E 023°38'0 0.0
2017-Oct-10 01:31N 37°57' E 023°38'0 0.0
2017-Oct-10 01:01N 37°57' E 023°38'0 0.0
2017-Oct-10 00:31N 37°57' E 023°38'0 0.0
2017-Oct-10 00:01N 37°57' E 023°38'0 0.0
2017-Oct-09 23:31N 37°57' E 023°38'0 0.0
2017-Oct-09 23:01N 37°57' E 023°38'0 0.0
2017-Oct-09 22:31N 37°57' E 023°38'0 0.0
2017-Oct-09 22:01N 37°57' E 023°38'0 0.0
2017-Oct-09 21:31N 37°57' E 023°38'0 0.0
2017-Oct-09 21:01N 37°57' E 023°38'0 0.2
2017-Oct-09 20:31N 37°57' E 023°38'611.6
2017-Oct-09 20:01N 37°51' E 023°39'1223.8
2017-Oct-09 19:30N 37°41' E 023°47'5123.6
2017-Oct-09 17:20N 37°19' E 024°45'824.3
2017-Oct-09 17:01N 37°14' E 024°54'1224.6
2017-Oct-09 16:30N 37°07' E 025°06'2 4.3
2017-Oct-09 16:00N 37°05' E 025°08'1019.5
2017-Oct-09 15:31N 37°09' E 025°19'4 7.5
2017-Oct-09 15:01N 37°06' E 025°22'8 1.7
2017-Oct-09 10:18N 36°59' E 025°17'724.1
2017-Oct-09 10:01N 37°06' E 025°20'4 7.4
2017-Oct-09 09:31N 37°09' E 025°19'918.2
2017-Oct-09 08:59N 37°05' E 025°08'1 1.9
2017-Oct-09 08:30N 37°06' E 025°07'1223.9
2017-Oct-09 08:01N 37°13' E 024°55'6023.9
2017-Oct-09 05:30N 37°38' E 023°46'1123.2
2017-Oct-09 05:01N 37°47' E 023°39'918.2
2017-Oct-09 04:30N 37°56' E 023°38'1 1.2
2017-Oct-09 04:00N 37°57' E 023°38'0 0.0
2017-Oct-09 03:30N 37°57' E 023°38'0 0.0
2017-Oct-09 03:00N 37°57' E 023°38'0 0.0
2017-Oct-09 02:30N 37°57' E 023°38'0 0.0
2017-Oct-09 02:00N 37°57' E 023°38'0 0.0
2017-Oct-09 01:30N 37°57' E 023°38'0 0.0
2017-Oct-09 01:00N 37°57' E 023°38'0 0.0
2017-Oct-09 00:30N 37°57' E 023°38'0 0.0
2017-Oct-09 00:00N 37°57' E 023°38'0 0.0
2017-Oct-08 23:30N 37°57' E 023°38'0 0.0
2017-Oct-08 23:00N 37°57' E 023°38'0 0.0
2017-Oct-08 22:30N 37°57' E 023°38'0 0.0
2017-Oct-08 22:00N 37°57' E 023°38'0 0.0
2017-Oct-08 21:30N 37°57' E 023°38'0 0.0
2017-Oct-08 21:00N 37°57' E 023°38'2 4.2
2017-Oct-08 20:30N 37°55' E 023°37'1122.4
2017-Oct-08 20:01N 37°45' E 023°43'5523.1
2017-Oct-08 17:38N 37°20' E 024°45'323.9
2017-Oct-08 17:31N 37°18' E 024°48'1223.8
2017-Oct-08 17:01N 37°11' E 024°60'910.9
2017-Oct-08 16:11N 37°05' E 025°09'211.7
2017-Oct-08 16:01N 37°07' E 025°09'1019.9
2017-Oct-08 15:31N 37°07' E 025°21'2 3.0
2017-Oct-08 15:01N 37°06' E 025°20'  

Dump ship's entire track history